Stations météo

réclame
Mon MeteoGroup
Polientes, Espagne (8033): Température de l'air & dewpoint: 11.12.2017 09:00:00 - 17.12.2017 09:00:00 (CET)Polientes, Espagne (8033): Vitesse du vent & gusts: 11.12.2017 09:00:00 - 17.12.2017 09:00:00 (CET)Polientes, Espagne (8033): Direction du vent: 11.12.2017 09:00:00 - 17.12.2017 09:00:00 (CET)Polientes, Espagne (8033): Quantités de précipitations: 11.12.2017 09:00:00 - 17.12.2017 09:00:00 (CET)
Date & Time tt [°C] td [°C] ff [km/h] ff [knt] fx [km/h] fx [knt] dd rr [mm]
17.12.2017 09:00:00 - - - - - - - -
17.12.2017 08:00:00 1,1 0,6 0 0 0 0 N 0,2
17.12.2017 07:00:00 1,1 0,6 0 0 2 1 N -
17.12.2017 06:00:00 1,2 0,6 0 0 0 0 N 0,0
17.12.2017 05:00:00 1,2 0,6 0 0 1 1 N 0,0
17.12.2017 04:00:00 1,1 0,6 1 1 4 2 W 0,1
17.12.2017 03:00:00 1,0 0,4 0 0 0 0 N 0,4
17.12.2017 02:00:00 0,6 0,0 0 0 3 2 N 0,3
17.12.2017 01:00:00 0,9 0,4 0 0 5 3 SW -
17.12.2017 00:00:00 1,1 0,6 0 0 3 1 NE 0,5
16.12.2017 23:00:00 0,9 0,4 1 1 4 2 NNE 0,4
16.12.2017 22:00:00 1,1 0,6 1 1 7 4 NNW 0,0
16.12.2017 21:00:00 1,4 0,9 4 2 13 7 NNE 0,1
16.12.2017 20:00:00 0,3 -0,3 0 0 4 2 NNE 0,0
16.12.2017 19:00:00 0,2 -0,5 1 0 4 2 ENE -
16.12.2017 18:00:00 1,4 0,6 0 0 6 4 SW 0,0
16.12.2017 17:00:00 2,4 1,5 0 0 4 2 SW 0,4
16.12.2017 16:00:00 2,5 1,3 0 0 13 7 N 0,5
16.12.2017 15:00:00 2,5 1,3 6 3 14 7 NE 1,4
16.12.2017 14:00:00 2,6 1,5 4 2 11 6 NE 1,0
16.12.2017 13:00:00 2,9 2,1 1 0 6 4 SW -
16.12.2017 12:00:00 2,4 1,7 0 0 5 3 SSW 1,1
16.12.2017 11:00:00 1,8 1,3 3 2 6 4 SW 1,0
16.12.2017 10:00:00 1,3 0,6 0 0 0 0 N 0,9
16.12.2017 09:00:00 1,1 0,4 1 0 20 11 W 0,7
16.12.2017 08:00:00 1,0 0,4 3 1 11 6 W 0,1
16.12.2017 07:00:00 0,5 0,0 0 0 6 4 NE -
16.12.2017 06:00:00 0,8 0,2 0 0 7 4 NE 0,8
16.12.2017 05:00:00 0,6 0,0 0 0 6 3 W 0,1
16.12.2017 04:00:00 1,1 0,4 1 0 9 5 NNE 0,0
16.12.2017 03:00:00 1,0 0,2 1 1 6 3 NNW 0,1
16.12.2017 02:00:00 1,8 1,1 1 1 10 5 WSW 0,6
16.12.2017 01:00:00 1,3 0,6 1 1 9 5 NNW -
16.12.2017 00:00:00 2,1 1,5 1 0 8 4 NE 1,7
15.12.2017 23:00:00 2,0 1,1 1 1 11 6 W 0,2
15.12.2017 22:00:00 2,6 1,3 1 1 8 5 NNW 0,1
15.12.2017 21:00:00 3,2 1,5 0 0 10 6 WNW 0,6
15.12.2017 20:00:00 3,2 0,6 2 1 14 7 WSW 0,1
15.12.2017 19:00:00 4,1 -1,2 1 1 16 9 S -
15.12.2017 18:00:00 5,0 -1,4 3 2 18 10 N 0,0
15.12.2017 17:00:00 6,5 -2,5 3 2 16 9 W 0,0
15.12.2017 16:00:00 7,2 -3,0 3 2 20 11 NNW 0,0
15.12.2017 15:00:00 7,7 -3,9 5 3 21 11 W 0,0
15.12.2017 14:00:00 7,7 -2,5 3 1 26 14 N 0,0
15.12.2017 13:00:00 7,3 -2,0 5 3 23 12 NNW -
15.12.2017 12:00:00 6,4 -2,5 3 1 23 13 NNW 0,0
15.12.2017 11:00:00 5,9 -0,3 4 2 15 8 NNE 0,0
15.12.2017 10:00:00 4,0 2,3 0 0 18 10 NNE 0,0
15.12.2017 09:00:00 2,4 1,5 1 0 5 3 SW 0,0
15.12.2017 08:00:00 2,6 1,1 3 1 8 4 W 0,0
15.12.2017 07:00:00 2,4 0,6 1 0 11 6 N -
15.12.2017 06:00:00 2,0 -0,3 2 1 5 3 N 0,0
15.12.2017 05:00:00 3,1 -0,5 0 0 26 14 WSW 0,0
15.12.2017 04:00:00 4,9 0,0 14 8 29 16 W 0,0
15.12.2017 03:00:00 3,5 2,1 0 0 6 3 N 0,0
15.12.2017 02:00:00 5,7 3,0 0 0 8 5 W 0,0
15.12.2017 01:00:00 7,4 4,6 5 3 12 6 NE -
15.12.2017 00:00:00 7,9 6,1 5 3 12 6 ENE 0,0
14.12.2017 23:00:00 8,1 6,4 4 2 22 12 ENE 0,0
14.12.2017 22:00:00 8,6 6,8 11 6 19 11 NE 0,0
14.12.2017 21:00:00 8,9 7,3 8 4 16 9 NE 0,0
14.12.2017 20:00:00 9,1 6,5 8 4 17 9 NE 0,0
14.12.2017 19:00:00 11,3 6,4 4 2 21 11 W -
14.12.2017 18:00:00 12,0 6,2 10 5 24 13 SW 0,0
14.12.2017 17:00:00 12,5 5,1 11 6 24 13 SW 0,0
14.12.2017 16:00:00 13,7 5,3 14 8 35 19 SW 0,0
14.12.2017 15:00:00 13,0 5,6 17 9 32 17 SW 0,0
14.12.2017 14:00:00 13,2 7,0 16 8 30 16 SW 0,0
14.12.2017 13:00:00 10,0 8,4 2 1 7 4 S -
14.12.2017 12:00:00 8,5 7,6 3 2 9 5 WSW 0,0
14.12.2017 11:00:00 8,2 7,4 0 0 7 4 N 0,0
14.12.2017 10:00:00 7,1 6,4 0 0 1 1 N 0,4
14.12.2017 09:00:00 7,1 6,4 0 0 0 0 N 0,4
14.12.2017 08:00:00 7,4 6,7 0 0 2 1 N 1,0
14.12.2017 07:00:00 7,5 6,7 0 0 0 0 N -
14.12.2017 06:00:00 7,7 6,8 0 0 0 0 N 0,1
14.12.2017 05:00:00 7,8 6,7 0 0 1 0 NE 0,0
14.12.2017 04:00:00 7,9 6,5 0 0 9 5 N 0,1
14.12.2017 03:00:00 8,3 6,1 6 3 21 11 SW 0,0
14.12.2017 02:00:00 8,4 6,4 10 5 26 14 SW 0,0
14.12.2017 01:00:00 8,5 5,6 14 8 31 17 SW -
14.12.2017 00:00:00 8,4 5,1 17 9 39 21 SW 0,0
13.12.2017 23:00:00 8,5 5,1 16 9 36 19 SW 0,0
13.12.2017 22:00:00 8,9 5,0 10 5 23 12 SSW 0,0
13.12.2017 21:00:00 8,6 5,0 8 4 27 14 SSW 0,0
13.12.2017 20:00:00 8,7 5,1 16 9 29 16 SW 0,0
13.12.2017 19:00:00 8,3 4,6 8 4 21 12 S -
13.12.2017 18:00:00 8,0 3,9 10 5 29 16 S 0,0
13.12.2017 17:00:00 8,2 3,6 18 10 42 23 SSW 0,0
13.12.2017 16:00:00 7,6 3,2 21 12 36 19 SSW 0,0
13.12.2017 15:00:00 7,2 3,0 19 11 38 20 SW 0,0
13.12.2017 14:00:00 6,9 3,6 15 8 31 17 SSW 0,0
13.12.2017 13:00:00 4,8 2,3 14 8 31 17 SSW -
13.12.2017 12:00:00 4,3 1,7 15 8 32 17 SSW 0,0
13.12.2017 11:00:00 3,6 1,1 11 6 31 17 SSW 0,0
13.12.2017 10:00:00 3,8 1,1 14 8 30 16 SSW 0,0
13.12.2017 09:00:00 3,7 0,6 13 7 31 17 SW 0,0
13.12.2017 08:00:00 3,5 0,9 16 8 29 16 SW 0,0
13.12.2017 07:00:00 3,1 0,4 14 7 26 14 SSW -
13.12.2017 06:00:00 2,6 1,3 7 4 17 9 SSW 0,0
13.12.2017 05:00:00 0,3 -0,5 1 1 12 6 SW 0,0
13.12.2017 04:00:00 -0,2 -0,7 2 1 6 3 SW 0,0
13.12.2017 03:00:00 -0,6 -1,2 0 0 5 3 N 0,0
13.12.2017 02:00:00 -1,7 -2,5 0 0 0 0 N 0,0
13.12.2017 01:00:00 -1,6 -2,2 0 0 3 1 N -
13.12.2017 00:00:00 -1,6 -2,2 0 0 2 1 N 0,0
12.12.2017 23:00:00 -1,2 -2,0 0 0 4 2 N 0,0
12.12.2017 22:00:00 -1,3 -2,2 0 0 5 3 N 0,0
12.12.2017 21:00:00 -0,2 -1,0 3 2 8 4 NNW 0,0
12.12.2017 20:00:00 0,3 -0,7 3 2 6 3 N 0,0
12.12.2017 19:00:00 1,3 0,0 4 2 10 5 N -
12.12.2017 18:00:00 2,1 0,2 5 3 10 5 N 0,0
12.12.2017 17:00:00 5,3 -1,0 0 0 12 7 SSW 0,0
12.12.2017 16:00:00 6,6 -0,5 4 2 14 8 SSE 0,0
12.12.2017 15:00:00 5,6 -0,3 6 4 19 10 S 0,0
12.12.2017 14:00:00 4,6 -0,5 9 5 19 10 S 0,0
12.12.2017 13:00:00 3,4 0,0 5 3 10 6 S -
12.12.2017 12:00:00 1,9 -0,7 0 0 8 4 S 0,0
12.12.2017 11:00:00 0,6 -1,0 0 0 8 4 S 0,0
12.12.2017 10:00:00 -1,0 -2,2 0 0 6 4 N 0,0
12.12.2017 09:00:00 -1,7 -2,5 0 0 3 2 WSW 0,0
12.12.2017 08:00:00 -1,9 -2,5 0 0 6 3 WSW 0,0
12.12.2017 07:00:00 -1,5 -2,2 0 0 4 2 N -
12.12.2017 06:00:00 -1,3 -2,2 0 0 8 4 WSW 0,0
12.12.2017 05:00:00 -1,3 -2,2 1 0 7 4 WSW 0,0
12.12.2017 04:00:00 -0,2 -1,0 0 0 8 4 WSW 0,0
12.12.2017 03:00:00 0,4 -0,5 4 2 17 9 WSW 0,2
12.12.2017 02:00:00 0,8 0,0 0 0 9 5 ENE 1,2
12.12.2017 01:00:00 1,1 -0,5 6 3 20 11 SW -
12.12.2017 00:00:00 1,4 -0,5 5 3 21 12 S 0,1
11.12.2017 23:00:00 1,1 -0,7 0 0 13 7 W 0,6
11.12.2017 22:00:00 1,1 -1,7 0 0 15 8 N 0,0
11.12.2017 21:00:00 1,8 -3,6 2 1 18 10 WSW 0,0
11.12.2017 20:00:00 1,9 -2,2 0 0 26 14 N 0,0
11.12.2017 19:00:00 3,6 -2,7 8 4 28 15 NW -
11.12.2017 18:00:00 3,5 -0,7 4 2 23 12 N 0,1
11.12.2017 17:00:00 4,5 1,3 8 4 20 11 NNE 0,2
11.12.2017 16:00:00 5,4 1,7 1 1 34 18 N 0,9
11.12.2017 15:00:00 7,5 -1,4 17 9 39 21 WSW 0,0
11.12.2017 14:00:00 8,0 -0,3 18 10 36 19 SW 0,0
11.12.2017 13:00:00 6,6 -0,5 18 10 37 20 SW -
11.12.2017 12:00:00 5,8 0,2 19 11 36 19 SW 0,0
11.12.2017 11:00:00 4,6 2,7 6 3 12 6 SSW 0,0
11.12.2017 10:00:00 3,4 2,5 0 0 7 4 N 0,0
11.12.2017 09:00:00 1,3 0,6 1 1 8 5 NE 0,0

tt = Température de l'air
td = dewpoint
ff = Vitesse du vent
fx = gusts
dd = Direction du vent
rr = Quantités de précipitations

stations d'obs. à proximité